sensor_id;sensor_type;location;lat;lon;timestamp;P1;durP1;ratioP1;P2;durP2;ratioP2
1699;SDS011;847;48.058;7.810;2023-03-01T00:00:54;23.70;;;15.40;;
1699;SDS011;847;48.058;7.810;2023-03-01T00:03:26;20.80;;;15.05;;
1699;SDS011;847;48.058;7.810;2023-03-01T00:05:53;17.77;;;14.43;;
1699;SDS011;847;48.058;7.810;2023-03-01T00:08:20;16.63;;;13.03;;
1699;SDS011;847;48.058;7.810;2023-03-01T00:10:47;18.83;;;15.00;;
1699;SDS011;847;48.058;7.810;2023-03-01T00:13:13;21.30;;;14.98;;
1699;SDS011;847;48.058;7.810;2023-03-01T00:15:40;24.75;;;15.90;;
1699;SDS011;847;48.058;7.810;2023-03-01T00:18:10;16.10;;;14.07;;
1699;SDS011;847;48.058;7.810;2023-03-01T00:20:36;19.02;;;14.20;;
1699;SDS011;847;48.058;7.810;2023-03-01T00:23:03;18.80;;;16.13;;
1699;SDS011;847;48.058;7.810;2023-03-01T00:25:30;25.50;;;14.90;;
1699;SDS011;847;48.058;7.810;2023-03-01T00:27:57;24.48;;;16.02;;
1699;SDS011;847;48.058;7.810;2023-03-01T00:30:24;20.38;;;16.02;;
1699;SDS011;847;48.058;7.810;2023-03-01T00:32:50;21.48;;;15.20;;
1699;SDS011;847;48.058;7.810;2023-03-01T00:35:19;20.52;;;14.80;;
1699;SDS011;847;48.058;7.810;2023-03-01T00:37:47;20.67;;;14.40;;
1699;SDS011;847;48.058;7.810;2023-03-01T00:40:18;19.98;;;14.80;;
1699;SDS011;847;48.058;7.810;2023-03-01T00:42:45;19.85;;;14.70;;
1699;SDS011;847;48.058;7.810;2023-03-01T00:45:12;17.40;;;14.15;;
1699;SDS011;847;48.058;7.810;2023-03-01T00:47:38;18.92;;;14.82;;
1699;SDS011;847;48.058;7.810;2023-03-01T00:50:05;21.90;;;15.50;;
1699;SDS011;847;48.058;7.810;2023-03-01T00:52:35;17.73;;;13.98;;
1699;SDS011;847;48.058;7.810;2023-03-01T00:55:02;16.98;;;14.48;;
1699;SDS011;847;48.058;7.810;2023-03-01T00:57:29;18.13;;;13.27;;
1699;SDS011;847;48.058;7.810;2023-03-01T00:59:56;19.88;;;14.70;;
1699;SDS011;847;48.058;7.810;2023-03-01T01:02:23;22.00;;;15.25;;
1699;SDS011;847;48.058;7.810;2023-03-01T01:04:50;17.08;;;14.00;;
1699;SDS011;847;48.058;7.810;2023-03-01T01:07:17;18.83;;;14.90;;
1699;SDS011;847;48.058;7.810;2023-03-01T01:09:46;18.55;;;14.07;;
1699;SDS011;847;48.058;7.810;2023-03-01T01:12:13;20.75;;;13.77;;
1699;SDS011;847;48.058;7.810;2023-03-01T01:14:40;20.75;;;14.57;;
1699;SDS011;847;48.058;7.810;2023-03-01T01:17:07;18.48;;;13.40;;
1699;SDS011;847;48.058;7.810;2023-03-01T01:19:34;19.75;;;15.13;;
1699;SDS011;847;48.058;7.810;2023-03-01T01:22:00;20.15;;;14.60;;
1699;SDS011;847;48.058;7.810;2023-03-01T01:24:28;19.33;;;14.18;;
1699;SDS011;847;48.058;7.810;2023-03-01T01:26:56;21.23;;;14.85;;
1699;SDS011;847;48.058;7.810;2023-03-01T01:29:23;18.75;;;14.35;;
1699;SDS011;847;48.058;7.810;2023-03-01T01:31:50;21.75;;;14.27;;
1699;SDS011;847;48.058;7.810;2023-03-01T01:34:18;19.85;;;15.32;;
1699;SDS011;847;48.058;7.810;2023-03-01T01:36:48;23.77;;;14.45;;
1699;SDS011;847;48.058;7.810;2023-03-01T01:39:15;18.58;;;14.25;;
1699;SDS011;847;48.058;7.810;2023-03-01T01:41:42;19.98;;;15.32;;
1699;SDS011;847;48.058;7.810;2023-03-01T01:44:12;20.15;;;15.05;;
1699;SDS011;847;48.058;7.810;2023-03-01T01:46:41;20.75;;;14.65;;
1699;SDS011;847;48.058;7.810;2023-03-01T01:49:12;18.65;;;15.23;;
1699;SDS011;847;48.058;7.810;2023-03-01T01:51:51;19.17;;;15.00;;
1699;SDS011;847;48.058;7.810;2023-03-01T01:54:24;22.92;;;14.55;;
1699;SDS011;847;48.058;7.810;2023-03-01T01:56:55;19.23;;;13.85;;
1699;SDS011;847;48.058;7.810;2023-03-01T01:59:26;21.70;;;13.95;;
1699;SDS011;847;48.058;7.810;2023-03-01T02:01:55;21.50;;;13.65;;
1699;SDS011;847;48.058;7.810;2023-03-01T02:04:24;19.90;;;13.70;;
1699;SDS011;847;48.058;7.810;2023-03-01T02:06:51;19.38;;;13.50;;
1699;SDS011;847;48.058;7.810;2023-03-01T02:09:23;21.85;;;13.90;;
1699;SDS011;847;48.058;7.810;2023-03-01T02:11:50;18.63;;;13.68;;
1699;SDS011;847;48.058;7.810;2023-03-01T02:14:18;21.55;;;14.77;;
1699;SDS011;847;48.058;7.810;2023-03-01T02:16:46;17.98;;;14.05;;
1699;SDS011;847;48.058;7.810;2023-03-01T02:19:19;18.00;;;13.85;;
1699;SDS011;847;48.058;7.810;2023-03-01T02:21:59;19.50;;;14.68;;
1699;SDS011;847;48.058;7.810;2023-03-01T02:24:35;23.38;;;14.82;;
1699;SDS011;847;48.058;7.810;2023-03-01T02:27:11;21.73;;;14.90;;
1699;SDS011;847;48.058;7.810;2023-03-01T02:29:40;17.58;;;13.55;;
1699;SDS011;847;48.058;7.810;2023-03-01T02:32:09;22.15;;;13.68;;
1699;SDS011;847;48.058;7.810;2023-03-01T02:34:38;20.20;;;14.27;;
1699;SDS011;847;48.058;7.810;2023-03-01T02:37:06;18.85;;;13.80;;
1699;SDS011;847;48.058;7.810;2023-03-01T02:39:38;21.02;;;14.68;;
1699;SDS011;847;48.058;7.810;2023-03-01T02:42:09;20.83;;;15.10;;
1699;SDS011;847;48.058;7.810;2023-03-01T02:44:48;19.05;;;15.00;;
1699;SDS011;847;48.058;7.810;2023-03-01T02:47:15;23.35;;;15.30;;
1699;SDS011;847;48.058;7.810;2023-03-01T02:49:42;21.52;;;15.57;;
1699;SDS011;847;48.058;7.810;2023-03-01T02:52:15;20.98;;;14.98;;
1699;SDS011;847;48.058;7.810;2023-03-01T02:54:50;20.75;;;15.45;;
1699;SDS011;847;48.058;7.810;2023-03-01T02:57:23;20.42;;;14.80;;
1699;SDS011;847;48.058;7.810;2023-03-01T02:59:53;19.60;;;14.30;;
1699;SDS011;847;48.058;7.810;2023-03-01T03:02:24;21.88;;;14.65;;
1699;SDS011;847;48.058;7.810;2023-03-01T03:05:05;20.02;;;13.13;;
1699;SDS011;847;48.058;7.810;2023-03-01T03:07:34;20.52;;;14.90;;
1699;SDS011;847;48.058;7.810;2023-03-01T03:10:03;20.15;;;14.43;;
1699;SDS011;847;48.058;7.810;2023-03-01T03:12:32;24.35;;;14.73;;
1699;SDS011;847;48.058;7.810;2023-03-01T03:15:01;21.38;;;15.43;;
1699;SDS011;847;48.058;7.810;2023-03-01T03:17:33;24.30;;;15.65;;
1699;SDS011;847;48.058;7.810;2023-03-01T03:20:00;20.65;;;14.02;;
1699;SDS011;847;48.058;7.810;2023-03-01T03:22:28;24.15;;;16.05;;
1699;SDS011;847;48.058;7.810;2023-03-01T03:24:55;25.95;;;15.75;;
1699;SDS011;847;48.058;7.810;2023-03-01T03:27:22;21.08;;;14.63;;
1699;SDS011;847;48.058;7.810;2023-03-01T03:29:49;21.25;;;15.05;;
1699;SDS011;847;48.058;7.810;2023-03-01T03:32:18;19.77;;;14.32;;
1699;SDS011;847;48.058;7.810;2023-03-01T03:34:44;21.40;;;14.35;;
1699;SDS011;847;48.058;7.810;2023-03-01T03:37:11;21.75;;;14.80;;
1699;SDS011;847;48.058;7.810;2023-03-01T03:39:52;22.00;;;14.55;;
1699;SDS011;847;48.058;7.810;2023-03-01T03:42:20;22.48;;;13.73;;
1699;SDS011;847;48.058;7.810;2023-03-01T03:44:48;24.98;;;16.00;;
1699;SDS011;847;48.058;7.810;2023-03-01T03:47:15;28.50;;;14.77;;
1699;SDS011;847;48.058;7.810;2023-03-01T03:49:43;22.23;;;15.43;;
1699;SDS011;847;48.058;7.810;2023-03-01T03:52:10;24.35;;;15.95;;
1699;SDS011;847;48.058;7.810;2023-03-01T03:54:38;20.58;;;14.32;;
1699;SDS011;847;48.058;7.810;2023-03-01T03:57:05;22.45;;;14.85;;
1699;SDS011;847;48.058;7.810;2023-03-01T03:59:32;25.50;;;16.25;;
1699;SDS011;847;48.058;7.810;2023-03-01T04:01:59;21.50;;;14.75;;
1699;SDS011;847;48.058;7.810;2023-03-01T04:04:26;21.90;;;14.90;;
1699;SDS011;847;48.058;7.810;2023-03-01T04:06:54;22.88;;;15.27;;
1699;SDS011;847;48.058;7.810;2023-03-01T04:09:22;23.33;;;16.15;;
1699;SDS011;847;48.058;7.810;2023-03-01T04:11:48;24.15;;;15.48;;
1699;SDS011;847;48.058;7.810;2023-03-01T04:14:15;21.15;;;14.40;;
1699;SDS011;847;48.058;7.810;2023-03-01T04:16:42;22.23;;;15.27;;
1699;SDS011;847;48.058;7.810;2023-03-01T04:19:09;23.02;;;15.82;;
1699;SDS011;847;48.058;7.810;2023-03-01T04:21:36;18.70;;;14.07;;
1699;SDS011;847;48.058;7.810;2023-03-01T04:24:05;21.60;;;14.40;;
1699;SDS011;847;48.058;7.810;2023-03-01T04:26:32;21.58;;;14.07;;
1699;SDS011;847;48.058;7.810;2023-03-01T04:28:59;20.25;;;14.23;;
1699;SDS011;847;48.058;7.810;2023-03-01T04:31:25;19.63;;;14.15;;
1699;SDS011;847;48.058;7.810;2023-03-01T04:33:53;19.25;;;14.05;;
1699;SDS011;847;48.058;7.810;2023-03-01T04:36:22;22.48;;;14.55;;
1699;SDS011;847;48.058;7.810;2023-03-01T04:38:50;24.45;;;14.90;;
1699;SDS011;847;48.058;7.810;2023-03-01T04:41:19;19.58;;;13.65;;
1699;SDS011;847;48.058;7.810;2023-03-01T04:43:49;21.73;;;15.23;;
1699;SDS011;847;48.058;7.810;2023-03-01T04:46:16;19.40;;;13.95;;
1699;SDS011;847;48.058;7.810;2023-03-01T04:48:45;26.80;;;14.98;;
1699;SDS011;847;48.058;7.810;2023-03-01T04:51:13;21.98;;;15.00;;
1699;SDS011;847;48.058;7.810;2023-03-01T04:53:41;18.27;;;14.52;;
1699;SDS011;847;48.058;7.810;2023-03-01T04:56:08;23.35;;;15.55;;
1699;SDS011;847;48.058;7.810;2023-03-01T04:58:36;24.83;;;16.00;;
1699;SDS011;847;48.058;7.810;2023-03-01T05:01:07;20.48;;;14.45;;
1699;SDS011;847;48.058;7.810;2023-03-01T05:03:40;21.52;;;14.10;;
1699;SDS011;847;48.058;7.810;2023-03-01T05:06:07;24.13;;;15.40;;
1699;SDS011;847;48.058;7.810;2023-03-01T05:08:34;20.30;;;14.43;;
1699;SDS011;847;48.058;7.810;2023-03-01T05:11:03;22.17;;;14.50;;
1699;SDS011;847;48.058;7.810;2023-03-01T05:13:30;19.25;;;14.45;;
1699;SDS011;847;48.058;7.810;2023-03-01T05:15:59;22.65;;;13.95;;
1699;SDS011;847;48.058;7.810;2023-03-01T05:18:28;23.42;;;14.20;;
1699;SDS011;847;48.058;7.810;2023-03-01T05:21:02;22.13;;;13.70;;
1699;SDS011;847;48.058;7.810;2023-03-01T05:23:31;23.10;;;13.85;;
1699;SDS011;847;48.058;7.810;2023-03-01T05:25:59;19.90;;;14.80;;
1699;SDS011;847;48.058;7.810;2023-03-01T05:28:27;20.27;;;14.15;;
1699;SDS011;847;48.058;7.810;2023-03-01T05:30:54;20.38;;;13.90;;
1699;SDS011;847;48.058;7.810;2023-03-01T05:33:23;22.42;;;14.40;;
1699;SDS011;847;48.058;7.810;2023-03-01T05:35:51;23.92;;;15.57;;
1699;SDS011;847;48.058;7.810;2023-03-01T05:38:19;20.23;;;13.93;;
1699;SDS011;847;48.058;7.810;2023-03-01T05:40:47;21.08;;;14.73;;
1699;SDS011;847;48.058;7.810;2023-03-01T05:43:15;19.98;;;14.57;;
1699;SDS011;847;48.058;7.810;2023-03-01T05:45:43;21.45;;;14.80;;
1699;SDS011;847;48.058;7.810;2023-03-01T05:48:10;20.58;;;13.90;;
1699;SDS011;847;48.058;7.810;2023-03-01T05:50:40;22.27;;;12.50;;
1699;SDS011;847;48.058;7.810;2023-03-01T05:53:09;21.65;;;14.70;;
1699;SDS011;847;48.058;7.810;2023-03-01T05:55:37;23.98;;;15.63;;
1699;SDS011;847;48.058;7.810;2023-03-01T05:58:06;21.92;;;14.63;;
1699;SDS011;847;48.058;7.810;2023-03-01T06:00:35;20.80;;;14.55;;
1699;SDS011;847;48.058;7.810;2023-03-01T06:03:02;20.20;;;13.50;;
1699;SDS011;847;48.058;7.810;2023-03-01T06:05:29;17.92;;;14.40;;
1699;SDS011;847;48.058;7.810;2023-03-01T06:07:59;22.98;;;15.15;;
1699;SDS011;847;48.058;7.810;2023-03-01T06:10:27;20.23;;;13.25;;
1699;SDS011;847;48.058;7.810;2023-03-01T06:12:54;19.55;;;13.10;;
1699;SDS011;847;48.058;7.810;2023-03-01T06:15:22;20.58;;;13.27;;
1699;SDS011;847;48.058;7.810;2023-03-01T06:17:49;21.70;;;14.13;;
1699;SDS011;847;48.058;7.810;2023-03-01T06:20:18;21.85;;;14.15;;
1699;SDS011;847;48.058;7.810;2023-03-01T06:22:46;25.27;;;15.13;;
1699;SDS011;847;48.058;7.810;2023-03-01T06:25:18;21.20;;;14.38;;
1699;SDS011;847;48.058;7.810;2023-03-01T06:27:46;20.52;;;14.57;;
1699;SDS011;847;48.058;7.810;2023-03-01T06:30:15;18.90;;;14.52;;
1699;SDS011;847;48.058;7.810;2023-03-01T06:32:43;22.52;;;15.98;;
1699;SDS011;847;48.058;7.810;2023-03-01T06:35:14;21.17;;;14.20;;
1699;SDS011;847;48.058;7.810;2023-03-01T06:37:45;20.15;;;14.30;;
1699;SDS011;847;48.058;7.810;2023-03-01T06:40:12;21.15;;;14.25;;
1699;SDS011;847;48.058;7.810;2023-03-01T06:42:41;19.92;;;13.57;;
1699;SDS011;847;48.058;7.810;2023-03-01T06:45:10;21.40;;;14.23;;
1699;SDS011;847;48.058;7.810;2023-03-01T06:47:37;20.85;;;13.32;;
1699;SDS011;847;48.058;7.810;2023-03-01T06:50:04;20.90;;;15.52;;
1699;SDS011;847;48.058;7.810;2023-03-01T06:52:32;24.27;;;15.85;;
1699;SDS011;847;48.058;7.810;2023-03-01T06:54:59;22.92;;;14.88;;
1699;SDS011;847;48.058;7.810;2023-03-01T06:57:26;24.20;;;15.02;;
1699;SDS011;847;48.058;7.810;2023-03-01T06:59:55;19.48;;;14.98;;
1699;SDS011;847;48.058;7.810;2023-03-01T07:02:22;21.65;;;13.82;;
1699;SDS011;847;48.058;7.810;2023-03-01T07:04:49;22.42;;;14.93;;
1699;SDS011;847;48.058;7.810;2023-03-01T07:07:16;24.77;;;14.80;;
1699;SDS011;847;48.058;7.810;2023-03-01T07:09:44;26.83;;;17.50;;
1699;SDS011;847;48.058;7.810;2023-03-01T07:12:11;23.88;;;16.40;;
1699;SDS011;847;48.058;7.810;2023-03-01T07:14:37;27.05;;;18.58;;
1699;SDS011;847;48.058;7.810;2023-03-01T07:17:06;33.50;;;21.23;;
1699;SDS011;847;48.058;7.810;2023-03-01T07:19:33;26.15;;;16.38;;
1699;SDS011;847;48.058;7.810;2023-03-01T07:21:59;24.63;;;16.30;;
1699;SDS011;847;48.058;7.810;2023-03-01T07:24:27;25.90;;;17.20;;
1699;SDS011;847;48.058;7.810;2023-03-01T07:26:54;23.38;;;14.90;;
1699;SDS011;847;48.058;7.810;2023-03-01T07:29:21;26.67;;;17.63;;
1699;SDS011;847;48.058;7.810;2023-03-01T07:31:47;27.08;;;18.20;;
1699;SDS011;847;48.058;7.810;2023-03-01T07:34:16;24.00;;;16.65;;
1699;SDS011;847;48.058;7.810;2023-03-01T07:36:43;26.63;;;17.17;;
1699;SDS011;847;48.058;7.810;2023-03-01T07:39:10;30.83;;;19.02;;
1699;SDS011;847;48.058;7.810;2023-03-01T07:41:37;26.83;;;17.77;;
1699;SDS011;847;48.058;7.810;2023-03-01T07:44:04;25.92;;;17.92;;
1699;SDS011;847;48.058;7.810;2023-03-01T07:46:31;26.90;;;16.45;;
1699;SDS011;847;48.058;7.810;2023-03-01T07:48:59;20.98;;;14.60;;
1699;SDS011;847;48.058;7.810;2023-03-01T07:51:27;26.15;;;17.80;;
1699;SDS011;847;48.058;7.810;2023-03-01T07:53:54;21.52;;;14.75;;
1699;SDS011;847;48.058;7.810;2023-03-01T07:56:21;27.25;;;17.30;;
1699;SDS011;847;48.058;7.810;2023-03-01T07:58:48;26.58;;;17.98;;
1699;SDS011;847;48.058;7.810;2023-03-01T08:01:15;24.45;;;16.10;;
1699;SDS011;847;48.058;7.810;2023-03-01T08:03:44;26.88;;;17.20;;
1699;SDS011;847;48.058;7.810;2023-03-01T08:06:12;22.75;;;15.05;;
1699;SDS011;847;48.058;7.810;2023-03-01T08:08:41;25.45;;;15.55;;
1699;SDS011;847;48.058;7.810;2023-03-01T08:11:10;20.63;;;14.20;;
1699;SDS011;847;48.058;7.810;2023-03-01T08:13:37;22.10;;;16.05;;
1699;SDS011;847;48.058;7.810;2023-03-01T08:16:05;25.25;;;17.17;;
1699;SDS011;847;48.058;7.810;2023-03-01T08:18:33;20.05;;;14.10;;
1699;SDS011;847;48.058;7.810;2023-03-01T08:21:01;22.58;;;16.50;;
1699;SDS011;847;48.058;7.810;2023-03-01T08:23:29;22.83;;;16.55;;
1699;SDS011;847;48.058;7.810;2023-03-01T08:26:03;27.15;;;16.33;;
1699;SDS011;847;48.058;7.810;2023-03-01T08:28:35;27.70;;;17.73;;
1699;SDS011;847;48.058;7.810;2023-03-01T08:31:02;30.83;;;19.15;;
1699;SDS011;847;48.058;7.810;2023-03-01T08:33:29;24.10;;;16.15;;
1699;SDS011;847;48.058;7.810;2023-03-01T08:36:02;33.95;;;20.85;;
1699;SDS011;847;48.058;7.810;2023-03-01T08:38:31;26.23;;;17.05;;
1699;SDS011;847;48.058;7.810;2023-03-01T08:40:59;28.45;;;17.67;;
1699;SDS011;847;48.058;7.810;2023-03-01T08:43:28;28.17;;;18.35;;
1699;SDS011;847;48.058;7.810;2023-03-01T08:45:55;26.08;;;17.83;;
1699;SDS011;847;48.058;7.810;2023-03-01T08:48:22;27.47;;;19.20;;
1699;SDS011;847;48.058;7.810;2023-03-01T08:50:49;23.83;;;17.53;;
1699;SDS011;847;48.058;7.810;2023-03-01T08:53:15;24.65;;;16.92;;
1699;SDS011;847;48.058;7.810;2023-03-01T08:55:42;23.07;;;17.37;;
1699;SDS011;847;48.058;7.810;2023-03-01T08:58:09;27.42;;;17.33;;
1699;SDS011;847;48.058;7.810;2023-03-01T09:00:37;27.40;;;19.42;;
1699;SDS011;847;48.058;7.810;2023-03-01T09:03:07;24.48;;;16.83;;
1699;SDS011;847;48.058;7.810;2023-03-01T09:05:34;25.00;;;17.17;;
1699;SDS011;847;48.058;7.810;2023-03-01T09:08:01;28.08;;;16.63;;
1699;SDS011;847;48.058;7.810;2023-03-01T09:10:28;25.38;;;17.08;;
1699;SDS011;847;48.058;7.810;2023-03-01T09:12:55;31.45;;;19.95;;
1699;SDS011;847;48.058;7.810;2023-03-01T09:15:22;26.15;;;17.75;;
1699;SDS011;847;48.058;7.810;2023-03-01T09:17:50;25.20;;;17.00;;
1699;SDS011;847;48.058;7.810;2023-03-01T09:20:17;26.23;;;17.15;;
1699;SDS011;847;48.058;7.810;2023-03-01T09:22:44;28.08;;;17.05;;
1699;SDS011;847;48.058;7.810;2023-03-01T09:25:11;25.80;;;18.33;;
1699;SDS011;847;48.058;7.810;2023-03-01T09:27:37;27.20;;;16.73;;
1699;SDS011;847;48.058;7.810;2023-03-01T09:30:05;29.90;;;18.40;;
1699;SDS011;847;48.058;7.810;2023-03-01T09:32:32;25.52;;;16.45;;
1699;SDS011;847;48.058;7.810;2023-03-01T09:35:01;25.80;;;16.67;;
1699;SDS011;847;48.058;7.810;2023-03-01T09:37:29;26.27;;;18.42;;
1699;SDS011;847;48.058;7.810;2023-03-01T09:39:57;27.50;;;18.25;;
1699;SDS011;847;48.058;7.810;2023-03-01T09:42:24;23.77;;;17.17;;
1699;SDS011;847;48.058;7.810;2023-03-01T09:44:53;28.67;;;17.52;;
1699;SDS011;847;48.058;7.810;2023-03-01T09:47:25;24.00;;;16.37;;
1699;SDS011;847;48.058;7.810;2023-03-01T09:49:58;28.95;;;18.17;;
1699;SDS011;847;48.058;7.810;2023-03-01T09:52:33;27.40;;;17.52;;
1699;SDS011;847;48.058;7.810;2023-03-01T09:55:07;26.00;;;17.10;;
1699;SDS011;847;48.058;7.810;2023-03-01T09:57:38;26.27;;;17.23;;
1699;SDS011;847;48.058;7.810;2023-03-01T10:00:13;24.17;;;17.93;;
1699;SDS011;847;48.058;7.810;2023-03-01T10:02:47;22.80;;;16.27;;
1699;SDS011;847;48.058;7.810;2023-03-01T10:08:31;25.33;;;19.20;;
1699;SDS011;847;48.058;7.810;2023-03-01T10:11:03;33.20;;;17.60;;
1699;SDS011;847;48.058;7.810;2023-03-01T10:13:41;24.43;;;15.83;;
1699;SDS011;847;48.058;7.810;2023-03-01T10:16:14;24.50;;;18.33;;
1699;SDS011;847;48.058;7.810;2023-03-01T10:18:46;26.43;;;17.70;;
1699;SDS011;847;48.058;7.810;2023-03-01T10:21:20;22.47;;;16.17;;
1699;SDS011;847;48.058;7.810;2023-03-01T10:23:49;24.07;;;17.93;;
1699;SDS011;847;48.058;7.810;2023-03-01T10:26:22;25.23;;;17.10;;
1699;SDS011;847;48.058;7.810;2023-03-01T10:29:02;25.20;;;16.17;;
1699;SDS011;847;48.058;7.810;2023-03-01T10:31:36;23.87;;;17.20;;
1699;SDS011;847;48.058;7.810;2023-03-01T10:34:08;23.83;;;18.37;;
1699;SDS011;847;48.058;7.810;2023-03-01T10:36:40;22.67;;;15.93;;
1699;SDS011;847;48.058;7.810;2023-03-01T10:39:12;25.50;;;17.77;;
1699;SDS011;847;48.058;7.810;2023-03-01T10:41:54;27.47;;;19.57;;
1699;SDS011;847;48.058;7.810;2023-03-01T10:44:36;25.07;;;19.13;;
1699;SDS011;847;48.058;7.810;2023-03-01T10:47:18;26.30;;;17.63;;
1699;SDS011;847;48.058;7.810;2023-03-01T10:49:51;32.60;;;18.30;;
1699;SDS011;847;48.058;7.810;2023-03-01T10:52:21;33.63;;;20.70;;
1699;SDS011;847;48.058;7.810;2023-03-01T10:54:53;29.77;;;20.17;;
1699;SDS011;847;48.058;7.810;2023-03-01T10:57:27;33.40;;;21.80;;
1699;SDS011;847;48.058;7.810;2023-03-01T11:00:03;26.80;;;19.83;;
1699;SDS011;847;48.058;7.810;2023-03-01T11:02:45;25.50;;;18.13;;
1699;SDS011;847;48.058;7.810;2023-03-01T11:05:16;26.50;;;18.40;;
1699;SDS011;847;48.058;7.810;2023-03-01T11:07:51;30.17;;;19.00;;
1699;SDS011;847;48.058;7.810;2023-03-01T11:10:20;28.87;;;17.77;;
1699;SDS011;847;48.058;7.810;2023-03-01T11:12:50;27.30;;;17.70;;
1699;SDS011;847;48.058;7.810;2023-03-01T11:15:21;28.63;;;18.93;;
1699;SDS011;847;48.058;7.810;2023-03-01T11:17:50;26.40;;;17.87;;
1699;SDS011;847;48.058;7.810;2023-03-01T11:20:20;31.33;;;20.10;;
1699;SDS011;847;48.058;7.810;2023-03-01T11:22:54;27.27;;;18.27;;
1699;SDS011;847;48.058;7.810;2023-03-01T11:25:25;25.00;;;18.73;;
1699;SDS011;847;48.058;7.810;2023-03-01T11:27:55;28.60;;;17.70;;
1699;SDS011;847;48.058;7.810;2023-03-01T11:30:24;28.73;;;18.70;;
1699;SDS011;847;48.058;7.810;2023-03-01T11:33:01;32.60;;;20.67;;
1699;SDS011;847;48.058;7.810;2023-03-01T11:35:35;24.07;;;17.40;;
1699;SDS011;847;48.058;7.810;2023-03-01T11:38:15;23.80;;;16.77;;
1699;SDS011;847;48.058;7.810;2023-03-01T11:40:48;27.03;;;17.80;;
1699;SDS011;847;48.058;7.810;2023-03-01T11:43:21;24.47;;;17.10;;
1699;SDS011;847;48.058;7.810;2023-03-01T11:45:58;31.20;;;21.17;;
1699;SDS011;847;48.058;7.810;2023-03-01T11:48:52;25.53;;;17.90;;
1699;SDS011;847;48.058;7.810;2023-03-01T11:51:26;29.20;;;19.30;;
1699;SDS011;847;48.058;7.810;2023-03-01T11:54:09;25.23;;;17.07;;
1699;SDS011;847;48.058;7.810;2023-03-01T11:56:45;24.73;;;17.70;;
1699;SDS011;847;48.058;7.810;2023-03-01T11:59:21;22.33;;;16.50;;
1699;SDS011;847;48.058;7.810;2023-03-01T12:02:18;26.20;;;17.20;;
1699;SDS011;847;48.058;7.810;2023-03-01T12:05:07;22.90;;;16.60;;
1699;SDS011;847;48.058;7.810;2023-03-01T12:07:52;25.03;;;16.23;;
1699;SDS011;847;48.058;7.810;2023-03-01T12:10:25;23.87;;;16.27;;
1699;SDS011;847;48.058;7.810;2023-03-01T12:15:59;26.10;;;16.57;;
1699;SDS011;847;48.058;7.810;2023-03-01T12:18:51;23.23;;;16.87;;
1699;SDS011;847;48.058;7.810;2023-03-01T12:21:33;20.53;;;15.87;;
1699;SDS011;847;48.058;7.810;2023-03-01T12:24:21;20.37;;;15.67;;
1699;SDS011;847;48.058;7.810;2023-03-01T12:27:15;19.57;;;14.00;;
1699;SDS011;847;48.058;7.810;2023-03-01T12:30:00;22.57;;;16.07;;
1699;SDS011;847;48.058;7.810;2023-03-01T12:32:45;22.33;;;16.73;;
1699;SDS011;847;48.058;7.810;2023-03-01T12:35:29;21.73;;;15.30;;
1699;SDS011;847;48.058;7.810;2023-03-01T12:38:19;21.20;;;16.27;;
1699;SDS011;847;48.058;7.810;2023-03-01T12:44:11;20.63;;;15.33;;
1699;SDS011;847;48.058;7.810;2023-03-01T12:46:53;19.20;;;14.30;;
1699;SDS011;847;48.058;7.810;2023-03-01T12:49:33;22.30;;;14.97;;
1699;SDS011;847;48.058;7.810;2023-03-01T12:52:09;20.43;;;14.97;;
1699;SDS011;847;48.058;7.810;2023-03-01T13:08:43;21.17;;;15.10;;
1699;SDS011;847;48.058;7.810;2023-03-01T13:21:38;15.17;;;11.87;;
1699;SDS011;847;48.058;7.810;2023-03-01T13:27:11;20.70;;;14.17;;
1699;SDS011;847;48.058;7.810;2023-03-01T13:29:52;22.20;;;13.17;;
1699;SDS011;847;48.058;7.810;2023-03-01T13:32:22;16.50;;;13.10;;
1699;SDS011;847;48.058;7.810;2023-03-01T13:34:50;20.97;;;14.10;;
1699;SDS011;847;48.058;7.810;2023-03-01T13:37:20;19.60;;;13.87;;
1699;SDS011;847;48.058;7.810;2023-03-01T13:39:50;15.97;;;12.67;;
1699;SDS011;847;48.058;7.810;2023-03-01T13:42:30;14.90;;;12.20;;
1699;SDS011;847;48.058;7.810;2023-03-01T13:45:01;19.10;;;14.50;;
1699;SDS011;847;48.058;7.810;2023-03-01T13:47:29;15.03;;;12.00;;
1699;SDS011;847;48.058;7.810;2023-03-01T13:49:59;18.13;;;13.63;;
1699;SDS011;847;48.058;7.810;2023-03-01T13:52:37;19.33;;;13.57;;
1699;SDS011;847;48.058;7.810;2023-03-01T13:55:17;21.03;;;13.17;;
1699;SDS011;847;48.058;7.810;2023-03-01T13:57:48;18.87;;;13.00;;
1699;SDS011;847;48.058;7.810;2023-03-01T14:00:29;18.93;;;13.70;;
1699;SDS011;847;48.058;7.810;2023-03-01T14:03:02;17.33;;;13.50;;
1699;SDS011;847;48.058;7.810;2023-03-01T14:05:34;16.73;;;12.47;;
1699;SDS011;847;48.058;7.810;2023-03-01T14:08:02;16.97;;;12.37;;
1699;SDS011;847;48.058;7.810;2023-03-01T14:10:30;18.00;;;14.03;;
1699;SDS011;847;48.058;7.810;2023-03-01T14:13:10;17.03;;;13.47;;
1699;SDS011;847;48.058;7.810;2023-03-01T14:15:56;16.97;;;13.00;;
1699;SDS011;847;48.058;7.810;2023-03-01T14:18:39;17.30;;;14.50;;
1699;SDS011;847;48.058;7.810;2023-03-01T14:21:13;21.77;;;16.10;;
1699;SDS011;847;48.058;7.810;2023-03-01T14:23:41;22.47;;;17.33;;
1699;SDS011;847;48.058;7.810;2023-03-01T14:26:09;22.20;;;17.33;;
1699;SDS011;847;48.058;7.810;2023-03-01T14:28:38;22.90;;;17.13;;
1699;SDS011;847;48.058;7.810;2023-03-01T14:34:04;25.03;;;18.17;;
1699;SDS011;847;48.058;7.810;2023-03-01T14:36:32;26.00;;;19.40;;
1699;SDS011;847;48.058;7.810;2023-03-01T14:39:00;25.33;;;19.47;;
1699;SDS011;847;48.058;7.810;2023-03-01T14:41:31;26.00;;;19.93;;
1699;SDS011;847;48.058;7.810;2023-03-01T14:44:02;21.80;;;18.13;;
1699;SDS011;847;48.058;7.810;2023-03-01T14:46:33;24.00;;;18.50;;
1699;SDS011;847;48.058;7.810;2023-03-01T14:49:03;27.83;;;19.43;;
1699;SDS011;847;48.058;7.810;2023-03-01T14:51:34;24.93;;;19.00;;
1699;SDS011;847;48.058;7.810;2023-03-01T14:54:03;26.60;;;18.13;;
1699;SDS011;847;48.058;7.810;2023-03-01T14:56:42;25.63;;;18.60;;
1699;SDS011;847;48.058;7.810;2023-03-01T14:59:12;24.87;;;18.63;;
1699;SDS011;847;48.058;7.810;2023-03-01T15:01:39;24.53;;;18.10;;
1699;SDS011;847;48.058;7.810;2023-03-01T15:04:09;24.63;;;19.90;;
1699;SDS011;847;48.058;7.810;2023-03-01T15:06:38;26.70;;;19.10;;
1699;SDS011;847;48.058;7.810;2023-03-01T15:09:05;27.00;;;18.70;;
1699;SDS011;847;48.058;7.810;2023-03-01T15:11:33;27.53;;;19.50;;
1699;SDS011;847;48.058;7.810;2023-03-01T15:14:01;24.27;;;18.73;;
1699;SDS011;847;48.058;7.810;2023-03-01T15:17:13;26.60;;;19.20;;
1699;SDS011;847;48.058;7.810;2023-03-01T15:19:46;26.20;;;18.90;;
1699;SDS011;847;48.058;7.810;2023-03-01T15:22:14;30.00;;;20.73;;
1699;SDS011;847;48.058;7.810;2023-03-01T15:24:45;24.10;;;19.10;;
1699;SDS011;847;48.058;7.810;2023-03-01T15:27:14;27.90;;;18.90;;
1699;SDS011;847;48.058;7.810;2023-03-01T15:29:49;29.30;;;19.50;;
1699;SDS011;847;48.058;7.810;2023-03-01T15:32:28;25.07;;;19.40;;
1699;SDS011;847;48.058;7.810;2023-03-01T15:34:56;26.90;;;19.27;;
1699;SDS011;847;48.058;7.810;2023-03-01T15:37:35;26.47;;;19.30;;
1699;SDS011;847;48.058;7.810;2023-03-01T15:40:17;26.20;;;19.87;;
1699;SDS011;847;48.058;7.810;2023-03-01T15:42:48;29.33;;;19.37;;
1699;SDS011;847;48.058;7.810;2023-03-01T15:45:23;27.37;;;19.83;;
1699;SDS011;847;48.058;7.810;2023-03-01T15:47:53;31.60;;;20.27;;
1699;SDS011;847;48.058;7.810;2023-03-01T15:50:23;28.60;;;20.40;;
1699;SDS011;847;48.058;7.810;2023-03-01T15:52:51;25.67;;;19.50;;
1699;SDS011;847;48.058;7.810;2023-03-01T15:55:19;25.63;;;19.53;;
1699;SDS011;847;48.058;7.810;2023-03-01T15:57:47;24.43;;;18.83;;
1699;SDS011;847;48.058;7.810;2023-03-01T16:00:15;27.20;;;19.93;;